createdAt,value
2019-01-06T00:02:23.851Z,18.13
2019-01-06T00:04:57.300Z,17.40
2019-01-06T00:07:36.183Z,20.93
2019-01-06T00:10:23.950Z,16.87
2019-01-06T00:12:54.054Z,16.63
2019-01-06T00:15:24.144Z,18.57
2019-01-06T00:17:56.968Z,18.37
2019-01-06T00:20:43.296Z,17.03
2019-01-06T00:23:13.396Z,19.17
2019-01-06T00:25:43.477Z,17.13
2019-01-06T00:28:16.249Z,19.17
2019-01-06T00:30:52.544Z,17.13
2019-01-06T00:33:25.419Z,22.60
2019-01-06T00:36:11.796Z,24.07
2019-01-06T00:38:57.090Z,19.77
2019-01-06T00:41:29.926Z,23.13
2019-01-06T00:44:09.208Z,19.37
2019-01-06T00:46:41.921Z,23.07
2019-01-06T00:49:28.141Z,23.27
2019-01-06T00:52:04.043Z,22.10
2019-01-06T00:54:34.133Z,25.37
2019-01-06T00:57:20.583Z,26.77
2019-01-06T00:59:51.080Z,23.40
2019-01-06T01:02:26.897Z,26.90
2019-01-06T01:04:59.680Z,25.20
2019-01-06T01:07:45.871Z,22.63
2019-01-06T01:10:31.180Z,30.47
2019-01-06T01:13:07.159Z,22.80
2019-01-06T01:15:55.898Z,22.40
2019-01-06T01:18:34.948Z,31.27
2019-01-06T01:21:05.093Z,26.27
2019-01-06T01:23:44.136Z,18.63
2019-01-06T01:26:30.496Z,21.77
2019-01-06T01:29:16.786Z,25.93
2019-01-06T01:32:03.552Z,22.87
2019-01-06T01:34:45.593Z,21.13
2019-01-06T01:37:18.340Z,25.37
2019-01-06T01:39:48.457Z,22.67
2019-01-06T01:42:18.547Z,22.43
2019-01-06T01:45:07.178Z,22.17
2019-01-06T01:47:53.796Z,26.13
2019-01-06T01:50:23.916Z,25.87
2019-01-06T01:52:54.005Z,23.67
2019-01-06T01:55:30.108Z,24.10
2019-01-06T01:58:09.296Z,23.27
2019-01-06T02:00:42.117Z,23.87
2019-01-06T02:03:28.665Z,25.60
2019-01-06T02:06:15.281Z,22.87
2019-01-06T02:08:45.659Z,23.70
2019-01-06T02:11:18.864Z,32.43
2019-01-06T02:13:49.041Z,26.33
2019-01-06T02:16:25.217Z,26.67
2019-01-06T02:19:01.338Z,25.33
2019-01-06T02:21:43.215Z,23.37
2019-01-06T02:24:22.595Z,24.37
2019-01-06T02:26:52.974Z,25.13
2019-01-06T02:29:35.345Z,23.27
2019-01-06T02:32:05.521Z,24.63
2019-01-06T02:34:52.198Z,27.67
2019-01-06T02:37:22.605Z,29.80
2019-01-06T02:40:09.295Z,25.20
2019-01-06T02:42:48.343Z,24.80
2019-01-06T02:45:24.437Z,26.83
2019-01-06T02:48:11.071Z,25.97
2019-01-06T02:50:41.430Z,24.93
2019-01-06T02:53:14.711Z,25.47
2019-01-06T02:56:00.107Z,24.20
2019-01-06T02:58:35.965Z,26.53
2019-01-06T03:01:08.779Z,28.20
2019-01-06T03:03:57.056Z,26.47
2019-01-06T03:06:43.903Z,22.53
2019-01-06T03:09:16.762Z,25.27
2019-01-06T03:12:04.638Z,26.37
2019-01-06T03:14:34.808Z,21.40
2019-01-06T03:17:04.935Z,23.43
2019-01-06T03:19:51.669Z,20.20
2019-01-06T03:22:38.434Z,25.83
2019-01-06T03:25:25.169Z,20.80
2019-01-06T03:27:55.273Z,18.90
2019-01-06T03:30:25.382Z,20.77
2019-01-06T03:33:12.006Z,22.10
2019-01-06T03:35:58.596Z,19.70
2019-01-06T03:38:28.975Z,22.57
2019-01-06T03:41:02.004Z,21.83
2019-01-06T03:43:44.372Z,22.67
2019-01-06T03:46:14.528Z,21.73
2019-01-06T03:48:59.932Z,25.23
2019-01-06T03:51:48.278Z,21.00
2019-01-06T03:54:24.116Z,21.40
2019-01-06T03:57:10.936Z,20.37
2019-01-06T03:59:53.136Z,21.80
2019-01-06T04:02:41.614Z,22.57
2019-01-06T04:05:11.695Z,25.33
2019-01-06T04:07:48.034Z,25.33
2019-01-06T04:10:20.978Z,24.10
2019-01-06T04:13:07.804Z,24.13
2019-01-06T04:15:41.065Z,26.93
2019-01-06T04:18:11.258Z,25.00
2019-01-06T04:20:41.357Z,25.07
2019-01-06T04:23:27.889Z,30.53
2019-01-06T04:25:57.972Z,27.07
2019-01-06T04:28:36.980Z,26.07
2019-01-06T04:31:10.176Z,25.57
2019-01-06T04:33:43.161Z,27.80
2019-01-06T04:36:19.070Z,31.07
2019-01-06T04:39:01.112Z,31.53
2019-01-06T04:41:40.375Z,29.30
2019-01-06T04:44:22.297Z,27.10
2019-01-06T04:46:52.688Z,32.80
2019-01-06T04:49:25.772Z,33.10
2019-01-06T04:51:59.192Z,29.90
2019-01-06T04:54:41.525Z,36.03
2019-01-06T04:57:26.840Z,34.63
2019-01-06T05:00:02.732Z,33.07
2019-01-06T05:02:38.468Z,40.50
2019-01-06T05:05:25.298Z,37.60
2019-01-06T05:07:55.440Z,36.43
2019-01-06T05:10:42.406Z,32.63
2019-01-06T05:13:18.521Z,34.27
2019-01-06T05:15:51.297Z,34.40
2019-01-06T05:18:36.617Z,33.80
2019-01-06T05:21:15.412Z,38.67
2019-01-06T05:24:03.807Z,38.03
2019-01-06T05:26:52.507Z,34.93
2019-01-06T05:29:34.621Z,35.73
2019-01-06T05:32:13.682Z,37.10
2019-01-06T05:34:53.910Z,31.93
2019-01-06T05:37:39.109Z,33.73
2019-01-06T05:40:15.004Z,36.77
2019-01-06T05:42:45.116Z,34.10
2019-01-06T05:45:15.183Z,37.23
2019-01-06T05:48:00.597Z,33.47
2019-01-06T05:50:47.533Z,33.53
2019-01-06T05:53:20.306Z,35.63
2019-01-06T05:56:02.596Z,38.10
2019-01-06T05:58:42.112Z,36.60
2019-01-06T06:01:12.689Z,39.40
2019-01-06T06:03:42.861Z,34.87
2019-01-06T06:06:18.399Z,47.67
2019-01-06T06:08:48.584Z,42.10
2019-01-06T06:11:24.657Z,40.37
2019-01-06T06:14:03.583Z,42.20
2019-01-06T06:16:42.520Z,40.67
2019-01-06T06:19:25.425Z,43.57
2019-01-06T06:21:55.763Z,46.20
2019-01-06T06:24:28.873Z,41.13
2019-01-06T06:27:01.893Z,42.27
2019-01-06T06:29:38.031Z,47.90
2019-01-06T06:32:10.856Z,45.47
2019-01-06T06:34:50.194Z,47.13
2019-01-06T06:37:36.470Z,49.37
2019-01-06T06:40:23.828Z,44.10
2019-01-06T06:42:56.664Z,55.33
2019-01-06T06:45:30.024Z,55.37
2019-01-06T06:48:09.332Z,52.63
2019-01-06T06:50:42.546Z,48.90
2019-01-06T06:53:12.709Z,55.50
2019-01-06T06:55:48.414Z,50.47
2019-01-06T06:58:24.059Z,50.73
2019-01-06T07:01:16.603Z,52.47
2019-01-06T07:03:48.499Z,53.43
2019-01-06T07:06:18.604Z,57.60
2019-01-06T07:08:54.501Z,53.70
2019-01-06T07:11:30.041Z,54.13
2019-01-06T07:14:03.172Z,48.77
2019-01-06T07:17:26.320Z,50.70
2019-01-06T07:20:08.633Z,55.73
2019-01-06T07:22:53.841Z,51.27
2019-01-06T07:25:27.138Z,53.50
2019-01-06T07:28:12.697Z,53.77
2019-01-06T07:30:45.644Z,50.50
2019-01-06T07:33:27.992Z,53.80
2019-01-06T07:36:13.418Z,53.97
2019-01-06T07:38:59.796Z,50.23
2019-01-06T07:41:38.969Z,52.13
2019-01-06T07:44:11.557Z,70.07
2019-01-06T07:46:41.644Z,56.57
2019-01-06T07:49:11.755Z,54.13
2019-01-06T07:51:42.194Z,60.30
2019-01-06T07:54:28.733Z,51.77
2019-01-06T07:57:15.399Z,54.60
2019-01-06T07:59:57.371Z,52.23
2019-01-06T08:02:46.707Z,57.80
2019-01-06T08:05:19.695Z,58.47
2019-01-06T08:07:49.784Z,55.97
2019-01-06T08:10:29.180Z,60.20
2019-01-06T08:13:05.071Z,51.73
2019-01-06T08:15:35.197Z,50.73
2019-01-06T08:18:21.603Z,51.77
2019-01-06T08:20:51.707Z,55.90
2019-01-06T08:23:24.643Z,49.83
2019-01-06T08:25:57.229Z,49.50
2019-01-06T08:28:27.312Z,53.70
2019-01-06T08:30:57.413Z,49.87
2019-01-06T08:33:45.546Z,60.07
2019-01-06T08:36:31.776Z,50.97
2019-01-06T08:39:17.124Z,52.00
2019-01-06T08:41:53.273Z,48.70
2019-01-06T08:44:39.345Z,50.50
2019-01-06T08:47:12.424Z,56.00
2019-01-06T08:49:58.725Z,50.33
2019-01-06T08:52:46.837Z,55.40
2019-01-06T08:55:16.965Z,51.90
2019-01-06T08:58:01.893Z,51.17
2019-01-06T09:00:41.263Z,48.67
2019-01-06T09:03:14.237Z,50.20
2019-01-06T09:06:02.205Z,47.57
2019-01-06T09:08:34.901Z,49.73
2019-01-06T09:11:10.725Z,61.13
2019-01-06T09:13:51.356Z,53.47
2019-01-06T09:16:24.271Z,50.37
2019-01-06T09:19:09.215Z,48.87
2019-01-06T09:21:39.303Z,53.13
2019-01-06T09:24:25.432Z,49.00
2019-01-06T09:26:55.523Z,50.67
2019-01-06T09:29:41.897Z,54.77
2019-01-06T09:32:11.979Z,55.50
2019-01-06T09:34:58.825Z,58.80
2019-01-06T09:37:41.316Z,52.37
2019-01-06T09:40:11.852Z,55.07
2019-01-06T09:42:47.611Z,51.83
2019-01-06T09:45:23.482Z,51.77
2019-01-06T09:48:10.092Z,51.87
2019-01-06T09:50:46.216Z,48.23
2019-01-06T09:53:16.309Z,45.07
2019-01-06T09:56:02.704Z,58.07
2019-01-06T09:58:32.795Z,57.43
2019-01-06T10:01:05.710Z,54.10
2019-01-06T10:03:52.363Z,54.60
2019-01-06T10:06:34.410Z,50.83
2019-01-06T10:09:20.600Z,51.67
2019-01-06T10:12:02.761Z,54.53
2019-01-06T10:14:41.791Z,49.83
2019-01-06T10:17:17.701Z,50.30
2019-01-06T10:19:47.781Z,53.00
2019-01-06T10:22:23.666Z,49.83
2019-01-06T10:25:03.322Z,51.43
2019-01-06T10:27:33.433Z,46.20
2019-01-06T10:30:09.279Z,47.43
2019-01-06T10:32:48.500Z,50.37
2019-01-06T10:35:18.837Z,50.20
2019-01-06T10:37:49.015Z,49.67
2019-01-06T10:40:25.233Z,45.90
2019-01-06T10:43:04.267Z,50.80
2019-01-06T10:45:50.440Z,51.43
2019-01-06T10:48:20.537Z,45.23
2019-01-06T10:50:56.616Z,43.70
2019-01-06T10:53:43.284Z,48.27
2019-01-06T10:56:16.382Z,43.13
2019-01-06T10:59:04.897Z,41.53
2019-01-06T11:01:51.232Z,46.50
2019-01-06T11:04:24.364Z,39.93
2019-01-06T11:06:57.108Z,49.60
2019-01-06T11:09:39.660Z,44.30
2019-01-06T11:12:26.307Z,41.07
2019-01-06T11:14:59.501Z,44.37
2019-01-06T11:17:47.463Z,43.00
2019-01-06T11:20:23.240Z,44.67
2019-01-06T11:22:53.315Z,44.43
2019-01-06T11:25:29.452Z,42.77
2019-01-06T11:28:15.836Z,43.50
2019-01-06T11:30:51.882Z,42.00
2019-01-06T11:33:38.314Z,45.40
2019-01-06T11:36:11.359Z,44.17
2019-01-06T11:38:53.475Z,43.67
2019-01-06T11:41:29.292Z,42.50
2019-01-06T11:44:08.435Z,44.87
2019-01-06T11:46:50.881Z,47.83
2019-01-06T11:49:26.669Z,41.77
2019-01-06T11:52:13.211Z,41.23
2019-01-06T11:54:43.305Z,40.23
2019-01-06T11:57:28.605Z,37.67
2019-01-06T11:59:58.747Z,39.40
2019-01-06T12:02:39.020Z,41.40
2019-01-06T12:05:24.740Z,36.77
2019-01-06T12:07:54.840Z,35.87
2019-01-06T12:10:41.253Z,40.93
2019-01-06T12:13:20.293Z,33.73
2019-01-06T12:15:56.177Z,36.10
2019-01-06T12:18:35.700Z,38.50
2019-01-06T12:21:08.719Z,38.13
2019-01-06T12:23:56.888Z,33.73
2019-01-06T12:26:26.994Z,31.83
2019-01-06T12:29:08.768Z,33.77
2019-01-06T12:31:38.875Z,36.27
2019-01-06T12:34:08.965Z,33.87
2019-01-06T12:36:39.127Z,37.63
2019-01-06T12:39:09.204Z,37.20
2019-01-06T12:41:51.546Z,35.70
2019-01-06T12:44:44.648Z,36.23
2019-01-06T12:47:26.593Z,44.57
2019-01-06T12:49:56.682Z,36.57
2019-01-06T12:52:41.923Z,37.57
2019-01-06T12:55:21.224Z,36.43
2019-01-06T12:57:54.458Z,35.00
2019-01-06T13:00:42.479Z,40.57
2019-01-06T13:03:29.095Z,49.27
2019-01-06T13:06:08.003Z,39.57
2019-01-06T13:08:38.105Z,37.77
2019-01-06T13:11:26.588Z,45.20
2019-01-06T13:14:05.699Z,45.00
2019-01-06T13:16:35.853Z,38.70
2019-01-06T13:19:14.954Z,43.17
2019-01-06T13:21:54.108Z,41.63
2019-01-06T13:24:39.496Z,47.00
2019-01-06T13:27:18.599Z,36.97
2019-01-06T13:29:54.890Z,39.90
2019-01-06T13:32:24.964Z,42.77
2019-01-06T13:35:00.921Z,41.63
2019-01-06T13:37:36.740Z,38.10
2019-01-06T13:40:07.860Z,36.73
2019-01-06T13:42:50.116Z,38.13
2019-01-06T13:45:29.384Z,36.07
2019-01-06T13:48:11.323Z,33.77
2019-01-06T13:50:41.482Z,41.70
2019-01-06T13:53:14.566Z,36.50
2019-01-06T13:55:59.552Z,34.83
2019-01-06T13:58:32.493Z,38.83
2019-01-06T14:01:02.598Z,37.73
2019-01-06T14:03:49.390Z,39.93
2019-01-06T14:06:22.648Z,41.13
2019-01-06T14:09:10.558Z,40.83
2019-01-06T14:11:57.025Z,37.13
2019-01-06T14:14:32.577Z,34.90
2019-01-06T14:17:11.460Z,34.67
2019-01-06T14:19:47.284Z,37.40
2019-01-06T14:22:32.401Z,33.90
2019-01-06T14:25:20.704Z,35.67
2019-01-06T14:28:02.826Z,34.13
2019-01-06T14:30:41.844Z,34.13
2019-01-06T14:33:27.104Z,36.37
2019-01-06T14:36:15.344Z,35.57
2019-01-06T14:39:00.594Z,36.13
2019-01-06T14:41:30.686Z,37.60
2019-01-06T14:44:06.683Z,39.73
2019-01-06T14:49:59.674Z,38.93
2019-01-06T14:52:32.539Z,33.63
2019-01-06T14:55:18.891Z,35.77
2019-01-06T14:57:52.073Z,36.33
2019-01-06T15:00:22.252Z,37.77
2019-01-06T15:03:10.337Z,38.47
2019-01-06T15:05:46.425Z,35.27
2019-01-06T15:08:22.332Z,33.27
2019-01-06T15:10:55.576Z,35.50
2019-01-06T15:13:25.862Z,38.40
2019-01-06T15:16:11.506Z,36.77
2019-01-06T15:18:58.109Z,36.63
2019-01-06T15:21:45.021Z,40.60
2019-01-06T15:24:27.560Z,35.33
2019-01-06T15:27:00.492Z,35.27
2019-01-06T15:29:46.660Z,39.53
2019-01-06T15:32:16.744Z,35.30
2019-01-06T15:34:49.684Z,37.67
2019-01-06T15:37:32.173Z,34.40
2019-01-06T15:40:05.269Z,30.23
2019-01-06T15:42:51.791Z,33.67
2019-01-06T15:45:24.646Z,36.30
2019-01-06T15:47:54.735Z,33.30
2019-01-06T15:50:36.461Z,32.43
2019-01-06T15:53:12.017Z,31.57
2019-01-06T15:55:44.840Z,35.20
2019-01-06T15:58:31.212Z,33.07
2019-01-06T16:01:10.346Z,36.93
2019-01-06T16:03:40.439Z,34.57
2019-01-06T16:06:16.202Z,38.97
2019-01-06T16:08:54.776Z,40.67
2019-01-06T16:11:24.155Z,41.57
2019-01-06T16:14:10.747Z,37.17
2019-01-06T16:16:40.848Z,36.53
2019-01-06T16:19:26.853Z,38.43
2019-01-06T16:21:59.887Z,40.40
2019-01-06T16:24:35.977Z,41.80
2019-01-06T16:27:08.988Z,45.17
2019-01-06T16:29:55.519Z,42.47
2019-01-06T16:32:28.598Z,48.07
2019-01-06T16:35:14.993Z,40.30
2019-01-06T16:37:57.380Z,40.10
2019-01-06T16:40:36.239Z,40.77
2019-01-06T16:43:21.429Z,39.87
2019-01-06T16:45:57.458Z,49.23
2019-01-06T16:48:39.296Z,42.33
2019-01-06T16:51:25.898Z,46.10
2019-01-06T16:54:12.273Z,38.67
2019-01-06T16:56:48.184Z,41.17
2019-01-06T16:59:33.450Z,44.83
2019-01-06T17:02:19.768Z,45.13
2019-01-06T17:04:49.853Z,43.97
2019-01-06T17:07:36.623Z,43.00
2019-01-06T17:10:13.805Z,46.07
2019-01-06T17:12:59.196Z,43.27
2019-01-06T17:15:29.275Z,48.07
2019-01-06T17:17:59.462Z,48.60
2019-01-06T17:20:32.654Z,45.30
2019-01-06T17:23:05.257Z,54.93
2019-01-06T17:25:38.347Z,51.57
2019-01-06T17:28:25.106Z,48.53
2019-01-06T17:31:01.207Z,49.83
2019-01-06T17:33:31.576Z,49.53
2019-01-06T17:36:17.874Z,50.10
2019-01-06T17:38:47.978Z,55.00
2019-01-06T17:41:18.138Z,51.03
2019-01-06T17:43:50.969Z,49.90
2019-01-06T17:46:30.072Z,47.83
2019-01-06T17:49:16.698Z,50.60
2019-01-06T17:52:03.247Z,50.17
2019-01-06T17:54:49.581Z,52.33
2019-01-06T17:57:25.654Z,52.27
2019-01-06T17:59:55.788Z,52.70
2019-01-06T18:02:41.124Z,52.70
2019-01-06T18:05:13.948Z,49.50
2019-01-06T18:07:55.742Z,52.37
2019-01-06T18:10:38.195Z,56.37
2019-01-06T18:13:17.354Z,48.90
2019-01-06T18:16:03.695Z,52.03
2019-01-06T18:18:33.802Z,48.80
2019-01-06T18:21:13.177Z,47.77
2019-01-06T18:23:45.981Z,52.83
2019-01-06T18:26:32.609Z,53.33
2019-01-06T18:29:21.035Z,54.13
2019-01-06T18:31:57.020Z,54.10
2019-01-06T18:34:30.120Z,61.07
2019-01-06T18:37:11.948Z,62.03
2019-01-06T18:39:42.031Z,64.03
2019-01-06T18:42:29.940Z,62.97
2019-01-06T18:45:09.041Z,56.70
2019-01-06T18:47:34.599Z,70.07
2019-01-06T18:50:07.704Z,58.80
2019-01-06T18:52:43.844Z,74.97
2019-01-06T18:55:30.513Z,60.37
2019-01-06T18:58:18.710Z,58.37
2019-01-06T19:00:51.882Z,61.40
2019-01-06T19:03:24.976Z,65.23
2019-01-06T19:06:04.181Z,68.30
2019-01-06T19:08:50.941Z,65.10
2019-01-06T19:11:21.028Z,64.93
2019-01-06T19:14:07.546Z,56.17
2019-01-06T19:16:37.633Z,75.67
2019-01-06T19:19:17.085Z,66.90
2019-01-06T19:21:47.335Z,59.53
2019-01-06T19:24:17.525Z,60.67
2019-01-06T19:26:50.447Z,64.53
2019-01-06T19:29:26.812Z,62.47
2019-01-06T19:31:56.943Z,63.90
2019-01-06T19:34:33.145Z,70.93
2019-01-06T19:37:21.313Z,65.97
2019-01-06T19:39:54.272Z,55.87
2019-01-06T19:42:27.440Z,62.00
2019-01-06T19:45:00.261Z,64.30
2019-01-06T19:47:30.392Z,72.73
2019-01-06T19:50:00.509Z,66.30
2019-01-06T19:52:30.597Z,65.50
2019-01-06T19:55:03.308Z,67.23
2019-01-06T19:57:46.918Z,75.90
2019-01-06T20:00:19.772Z,80.20
2019-01-06T20:03:05.823Z,79.93
2019-01-06T20:05:45.047Z,75.57
2019-01-06T20:08:31.309Z,80.77
2019-01-06T20:11:17.912Z,74.53
2019-01-06T20:13:50.997Z,87.47
2019-01-06T20:16:26.612Z,81.03
2019-01-06T20:19:02.699Z,72.27
2019-01-06T20:21:49.017Z,75.53
2019-01-06T20:24:28.393Z,78.57
2019-01-06T20:27:07.653Z,85.07
2019-01-06T20:29:40.739Z,78.43
2019-01-06T20:32:16.672Z,82.63
2019-01-06T20:34:52.292Z,75.53
2019-01-06T20:37:31.272Z,89.87
2019-01-06T20:40:18.008Z,76.63
2019-01-06T20:43:06.409Z,80.23
2019-01-06T20:45:36.502Z,88.70
2019-01-06T20:48:12.608Z,85.23
2019-01-06T20:50:45.432Z,83.03
2019-01-06T20:53:21.959Z,78.67
2019-01-06T20:56:04.140Z,78.17
2019-01-06T20:58:39.789Z,81.50
2019-01-06T21:01:26.341Z,88.57
2019-01-06T21:04:08.305Z,80.17
2019-01-06T21:06:38.404Z,77.23
2019-01-06T21:09:20.432Z,82.23
2019-01-06T21:11:50.525Z,73.07
2019-01-06T21:14:37.049Z,75.17
2019-01-06T21:17:23.201Z,79.40
2019-01-06T21:20:11.454Z,71.37
2019-01-06T21:22:41.542Z,81.40
2019-01-06T21:25:26.684Z,74.97
2019-01-06T21:27:56.776Z,95.13
2019-01-06T21:30:32.585Z,85.93
2019-01-06T21:33:08.804Z,78.40
2019-01-06T21:35:42.024Z,84.87
2019-01-06T21:38:12.119Z,91.73
2019-01-06T21:41:00.527Z,91.33
2019-01-06T21:43:46.785Z,83.10
2019-01-06T21:46:16.898Z,85.70
2019-01-06T21:48:52.880Z,87.03
2019-01-06T21:51:23.059Z,84.33
2019-01-06T21:54:08.168Z,94.43
2019-01-06T21:56:50.325Z,75.60
2019-01-06T21:59:35.475Z,78.67
2019-01-06T22:02:08.164Z,88.23
2019-01-06T22:04:40.880Z,80.10
2019-01-06T22:07:11.101Z,76.00
2019-01-06T22:09:47.267Z,81.43
2019-01-06T22:12:17.559Z,75.77
2019-01-06T22:14:53.733Z,81.67
2019-01-06T22:17:35.719Z,87.13
2019-01-06T22:20:19.564Z,79.47
2019-01-06T22:22:49.780Z,82.73
2019-01-06T22:25:19.873Z,91.87
2019-01-06T22:28:06.024Z,88.83
2019-01-06T22:30:54.389Z,95.87
2019-01-06T22:33:28.219Z,96.23
2019-01-06T22:36:07.304Z,94.97
2019-01-06T22:38:44.002Z,102.37
2019-01-06T22:41:15.053Z,106.60
2019-01-06T22:43:57.099Z,92.20
2019-01-06T22:46:27.203Z,99.13
2019-01-06T22:49:14.017Z,101.27
2019-01-06T22:51:53.451Z,87.83
2019-01-06T22:54:35.844Z,99.83
2019-01-06T22:57:14.890Z,99.33
2019-01-06T22:59:57.380Z,106.07
2019-01-06T23:02:43.979Z,97.03
2019-01-06T23:05:16.972Z,102.00
2019-01-06T23:08:11.228Z,110.37
2019-01-06T23:10:50.106Z,107.77
2019-01-06T23:13:38.270Z,94.40
2019-01-06T23:16:08.412Z,98.27
2019-01-06T23:18:54.813Z,86.30
2019-01-06T23:21:29.899Z,119.30
2019-01-06T23:24:09.189Z,112.57
2019-01-06T23:27:07.534Z,111.73
2019-01-06T23:29:55.015Z,143.73
2019-01-06T23:32:34.698Z,110.60
2019-01-06T23:35:09.699Z,128.37
2019-01-06T23:37:55.311Z,118.43
2019-01-06T23:40:42.070Z,110.40
2019-01-06T23:43:12.234Z,99.33
2019-01-06T23:45:58.323Z,92.23
2019-01-06T23:48:34.116Z,86.37
2019-01-06T23:51:10.136Z,89.47
2019-01-06T23:53:43.032Z,88.20
2019-01-06T23:56:29.303Z,88.80
2019-01-06T23:59:02.503Z,85.73
